sensor_id;sensor_type;location;lat;lon;timestamp;P1;durP1;ratioP1;P2;durP2;ratioP2
7657;SDS011;8462;53.156;8.220;2022-09-14T00:02:21;5.20;;;1.77;;
7657;SDS011;8462;53.156;8.220;2022-09-14T00:04:48;2.87;;;1.30;;
7657;SDS011;8462;53.156;8.220;2022-09-14T00:07:15;4.67;;;1.70;;
7657;SDS011;8462;53.156;8.220;2022-09-14T00:09:42;5.03;;;1.47;;
7657;SDS011;8462;53.156;8.220;2022-09-14T00:12:09;8.83;;;2.20;;
7657;SDS011;8462;53.156;8.220;2022-09-14T00:14:37;3.83;;;1.60;;
7657;SDS011;8462;53.156;8.220;2022-09-14T00:17:04;3.00;;;1.47;;
7657;SDS011;8462;53.156;8.220;2022-09-14T00:19:31;5.20;;;1.57;;
7657;SDS011;8462;53.156;8.220;2022-09-14T00:21:58;5.73;;;1.70;;
7657;SDS011;8462;53.156;8.220;2022-09-14T00:24:26;5.77;;;1.87;;
7657;SDS011;8462;53.156;8.220;2022-09-14T00:26:55;8.10;;;2.10;;
7657;SDS011;8462;53.156;8.220;2022-09-14T00:29:22;3.53;;;1.70;;
7657;SDS011;8462;53.156;8.220;2022-09-14T00:31:51;3.40;;;1.50;;
7657;SDS011;8462;53.156;8.220;2022-09-14T00:34:18;2.77;;;1.60;;
7657;SDS011;8462;53.156;8.220;2022-09-14T00:36:46;7.07;;;2.20;;
7657;SDS011;8462;53.156;8.220;2022-09-14T00:39:14;4.27;;;1.90;;
7657;SDS011;8462;53.156;8.220;2022-09-14T00:41:46;3.53;;;1.80;;
7657;SDS011;8462;53.156;8.220;2022-09-14T00:47:20;6.90;;;2.13;;
7657;SDS011;8462;53.156;8.220;2022-09-14T00:49:47;4.07;;;1.90;;
7657;SDS011;8462;53.156;8.220;2022-09-14T00:52:15;3.73;;;1.77;;
7657;SDS011;8462;53.156;8.220;2022-09-14T00:54:46;4.20;;;1.87;;
7657;SDS011;8462;53.156;8.220;2022-09-14T00:57:15;3.40;;;2.10;;
7657;SDS011;8462;53.156;8.220;2022-09-14T00:59:43;5.97;;;2.43;;
7657;SDS011;8462;53.156;8.220;2022-09-14T01:02:12;2.23;;;1.93;;
7657;SDS011;8462;53.156;8.220;2022-09-14T01:04:41;5.63;;;2.17;;
7657;SDS011;8462;53.156;8.220;2022-09-14T01:07:10;4.17;;;2.00;;
7657;SDS011;8462;53.156;8.220;2022-09-14T01:09:48;5.47;;;2.40;;
7657;SDS011;8462;53.156;8.220;2022-09-14T01:12:23;7.67;;;2.77;;
7657;SDS011;8462;53.156;8.220;2022-09-14T01:15:03;2.67;;;2.20;;
7657;SDS011;8462;53.156;8.220;2022-09-14T01:17:37;5.13;;;2.30;;
7657;SDS011;8462;53.156;8.220;2022-09-14T01:20:17;6.20;;;2.60;;
7657;SDS011;8462;53.156;8.220;2022-09-14T01:22:56;4.53;;;2.17;;
7657;SDS011;8462;53.156;8.220;2022-09-14T01:25:37;3.67;;;2.63;;
7657;SDS011;8462;53.156;8.220;2022-09-14T01:28:19;5.30;;;2.80;;
7657;SDS011;8462;53.156;8.220;2022-09-14T01:30:48;2.80;;;2.10;;
7657;SDS011;8462;53.156;8.220;2022-09-14T01:33:20;3.90;;;2.20;;
7657;SDS011;8462;53.156;8.220;2022-09-14T01:35:53;6.50;;;2.37;;
7657;SDS011;8462;53.156;8.220;2022-09-14T01:38:23;6.60;;;2.47;;
7657;SDS011;8462;53.156;8.220;2022-09-14T01:40:54;4.10;;;2.57;;
7657;SDS011;8462;53.156;8.220;2022-09-14T01:43:24;3.70;;;2.33;;
7657;SDS011;8462;53.156;8.220;2022-09-14T01:45:55;4.23;;;2.20;;
7657;SDS011;8462;53.156;8.220;2022-09-14T01:48:26;4.57;;;2.60;;
7657;SDS011;8462;53.156;8.220;2022-09-14T01:50:57;3.60;;;2.27;;
7657;SDS011;8462;53.156;8.220;2022-09-14T01:53:29;4.03;;;2.40;;
7657;SDS011;8462;53.156;8.220;2022-09-14T01:56:00;7.03;;;2.33;;
7657;SDS011;8462;53.156;8.220;2022-09-14T01:58:35;3.30;;;2.50;;
7657;SDS011;8462;53.156;8.220;2022-09-14T02:01:07;5.70;;;2.70;;
7657;SDS011;8462;53.156;8.220;2022-09-14T02:03:39;6.70;;;2.93;;
7657;SDS011;8462;53.156;8.220;2022-09-14T02:06:11;7.30;;;2.60;;
7657;SDS011;8462;53.156;8.220;2022-09-14T02:08:42;7.73;;;2.60;;
7657;SDS011;8462;53.156;8.220;2022-09-14T02:11:09;5.43;;;2.30;;
7657;SDS011;8462;53.156;8.220;2022-09-14T02:13:38;7.03;;;3.83;;
7657;SDS011;8462;53.156;8.220;2022-09-14T02:16:05;5.70;;;2.53;;
7657;SDS011;8462;53.156;8.220;2022-09-14T02:18:32;3.67;;;2.87;;
7657;SDS011;8462;53.156;8.220;2022-09-14T02:21:01;4.70;;;2.50;;
7657;SDS011;8462;53.156;8.220;2022-09-14T02:23:31;3.73;;;2.27;;
7657;SDS011;8462;53.156;8.220;2022-09-14T02:26:00;8.30;;;2.87;;
7657;SDS011;8462;53.156;8.220;2022-09-14T02:28:27;5.83;;;2.37;;
7657;SDS011;8462;53.156;8.220;2022-09-14T02:30:59;2.83;;;2.33;;
7657;SDS011;8462;53.156;8.220;2022-09-14T02:33:32;7.30;;;3.00;;
7657;SDS011;8462;53.156;8.220;2022-09-14T02:36:12;4.93;;;2.70;;
7657;SDS011;8462;53.156;8.220;2022-09-14T02:38:49;7.90;;;2.80;;
7657;SDS011;8462;53.156;8.220;2022-09-14T02:41:24;8.17;;;2.67;;
7657;SDS011;8462;53.156;8.220;2022-09-14T02:43:58;4.53;;;2.50;;
7657;SDS011;8462;53.156;8.220;2022-09-14T02:46:35;4.27;;;2.90;;
7657;SDS011;8462;53.156;8.220;2022-09-14T02:49:08;3.27;;;2.60;;
7657;SDS011;8462;53.156;8.220;2022-09-14T02:51:47;6.30;;;2.40;;
7657;SDS011;8462;53.156;8.220;2022-09-14T02:54:22;4.77;;;2.50;;
7657;SDS011;8462;53.156;8.220;2022-09-14T02:56:53;4.60;;;2.47;;
7657;SDS011;8462;53.156;8.220;2022-09-14T02:59:20;5.80;;;2.37;;
7657;SDS011;8462;53.156;8.220;2022-09-14T03:01:48;4.37;;;2.60;;
7657;SDS011;8462;53.156;8.220;2022-09-14T03:04:15;5.57;;;2.90;;
7657;SDS011;8462;53.156;8.220;2022-09-14T03:06:42;6.77;;;2.87;;
7657;SDS011;8462;53.156;8.220;2022-09-14T03:09:09;3.00;;;2.57;;
7657;SDS011;8462;53.156;8.220;2022-09-14T03:11:36;7.63;;;2.70;;
7657;SDS011;8462;53.156;8.220;2022-09-14T03:14:03;6.47;;;2.80;;
7657;SDS011;8462;53.156;8.220;2022-09-14T03:16:30;4.73;;;3.00;;
7657;SDS011;8462;53.156;8.220;2022-09-14T03:18:58;4.63;;;2.90;;
7657;SDS011;8462;53.156;8.220;2022-09-14T03:21:26;5.40;;;3.00;;
7657;SDS011;8462;53.156;8.220;2022-09-14T03:23:53;3.77;;;2.70;;
7657;SDS011;8462;53.156;8.220;2022-09-14T03:26:22;6.90;;;3.17;;
7657;SDS011;8462;53.156;8.220;2022-09-14T03:28:50;5.67;;;3.00;;
7657;SDS011;8462;53.156;8.220;2022-09-14T03:31:18;5.37;;;3.17;;
7657;SDS011;8462;53.156;8.220;2022-09-14T03:33:45;6.53;;;3.80;;
7657;SDS011;8462;53.156;8.220;2022-09-14T03:36:14;3.97;;;3.17;;
7657;SDS011;8462;53.156;8.220;2022-09-14T03:38:43;5.77;;;2.70;;
7657;SDS011;8462;53.156;8.220;2022-09-14T03:41:10;5.73;;;3.40;;
7657;SDS011;8462;53.156;8.220;2022-09-14T03:43:38;4.67;;;3.23;;
7657;SDS011;8462;53.156;8.220;2022-09-14T03:46:06;4.77;;;3.40;;
7657;SDS011;8462;53.156;8.220;2022-09-14T03:48:34;11.03;;;3.80;;
7657;SDS011;8462;53.156;8.220;2022-09-14T03:51:03;8.33;;;3.60;;
7657;SDS011;8462;53.156;8.220;2022-09-14T03:53:34;5.17;;;3.83;;
7657;SDS011;8462;53.156;8.220;2022-09-14T03:56:04;6.70;;;3.90;;
7657;SDS011;8462;53.156;8.220;2022-09-14T03:58:32;6.87;;;3.43;;
7657;SDS011;8462;53.156;8.220;2022-09-14T04:01:02;4.63;;;3.63;;
7657;SDS011;8462;53.156;8.220;2022-09-14T04:03:30;5.97;;;3.90;;
7657;SDS011;8462;53.156;8.220;2022-09-14T04:05:57;6.67;;;3.70;;
7657;SDS011;8462;53.156;8.220;2022-09-14T04:08:24;7.47;;;3.93;;
7657;SDS011;8462;53.156;8.220;2022-09-14T04:10:53;4.07;;;3.27;;
7657;SDS011;8462;53.156;8.220;2022-09-14T04:13:27;9.07;;;3.17;;
7657;SDS011;8462;53.156;8.220;2022-09-14T04:15:54;4.87;;;3.17;;
7657;SDS011;8462;53.156;8.220;2022-09-14T04:18:23;8.33;;;3.43;;
7657;SDS011;8462;53.156;8.220;2022-09-14T04:20:53;5.87;;;3.07;;
7657;SDS011;8462;53.156;8.220;2022-09-14T04:23:21;7.27;;;3.80;;
7657;SDS011;8462;53.156;8.220;2022-09-14T04:25:48;8.67;;;3.70;;
7657;SDS011;8462;53.156;8.220;2022-09-14T04:28:23;10.83;;;3.40;;
7657;SDS011;8462;53.156;8.220;2022-09-14T04:30:55;7.50;;;2.87;;
7657;SDS011;8462;53.156;8.220;2022-09-14T04:33:23;5.33;;;3.20;;
7657;SDS011;8462;53.156;8.220;2022-09-14T04:35:57;4.80;;;3.20;;
7657;SDS011;8462;53.156;8.220;2022-09-14T04:38:26;4.73;;;2.90;;
7657;SDS011;8462;53.156;8.220;2022-09-14T04:40:53;4.03;;;2.90;;
7657;SDS011;8462;53.156;8.220;2022-09-14T04:43:20;6.50;;;3.47;;
7657;SDS011;8462;53.156;8.220;2022-09-14T04:45:49;5.67;;;3.17;;
7657;SDS011;8462;53.156;8.220;2022-09-14T04:48:16;5.37;;;3.77;;
7657;SDS011;8462;53.156;8.220;2022-09-14T04:50:43;5.77;;;3.33;;
7657;SDS011;8462;53.156;8.220;2022-09-14T04:53:11;6.67;;;3.63;;
7657;SDS011;8462;53.156;8.220;2022-09-14T04:55:38;5.50;;;3.20;;
7657;SDS011;8462;53.156;8.220;2022-09-14T04:58:05;8.20;;;4.27;;
7657;SDS011;8462;53.156;8.220;2022-09-14T05:00:34;6.50;;;3.27;;
7657;SDS011;8462;53.156;8.220;2022-09-14T05:03:02;6.40;;;2.93;;
7657;SDS011;8462;53.156;8.220;2022-09-14T05:05:29;8.13;;;3.80;;
7657;SDS011;8462;53.156;8.220;2022-09-14T05:07:59;4.83;;;3.60;;
7657;SDS011;8462;53.156;8.220;2022-09-14T05:10:27;3.40;;;3.10;;
7657;SDS011;8462;53.156;8.220;2022-09-14T05:12:54;7.57;;;3.17;;
7657;SDS011;8462;53.156;8.220;2022-09-14T05:15:21;5.33;;;3.00;;
7657;SDS011;8462;53.156;8.220;2022-09-14T05:17:49;6.80;;;2.90;;
7657;SDS011;8462;53.156;8.220;2022-09-14T05:20:16;11.50;;;3.57;;
7657;SDS011;8462;53.156;8.220;2022-09-14T05:22:43;5.03;;;3.23;;
7657;SDS011;8462;53.156;8.220;2022-09-14T05:25:14;4.40;;;3.17;;
7657;SDS011;8462;53.156;8.220;2022-09-14T05:27:41;6.27;;;3.50;;
7657;SDS011;8462;53.156;8.220;2022-09-14T05:30:08;4.07;;;3.13;;
7657;SDS011;8462;53.156;8.220;2022-09-14T05:32:36;3.20;;;2.83;;
7657;SDS011;8462;53.156;8.220;2022-09-14T05:35:04;3.90;;;3.13;;
7657;SDS011;8462;53.156;8.220;2022-09-14T05:37:32;9.07;;;3.43;;
7657;SDS011;8462;53.156;8.220;2022-09-14T05:39:59;4.47;;;3.13;;
7657;SDS011;8462;53.156;8.220;2022-09-14T05:42:26;7.70;;;3.20;;
7657;SDS011;8462;53.156;8.220;2022-09-14T05:44:53;3.93;;;2.97;;
7657;SDS011;8462;53.156;8.220;2022-09-14T05:47:20;6.30;;;3.30;;
7657;SDS011;8462;53.156;8.220;2022-09-14T05:49:46;4.30;;;3.07;;
7657;SDS011;8462;53.156;8.220;2022-09-14T05:52:15;5.70;;;3.20;;
7657;SDS011;8462;53.156;8.220;2022-09-14T05:54:42;6.77;;;2.77;;
7657;SDS011;8462;53.156;8.220;2022-09-14T05:57:09;6.80;;;3.03;;
7657;SDS011;8462;53.156;8.220;2022-09-14T05:59:36;5.17;;;2.97;;
7657;SDS011;8462;53.156;8.220;2022-09-14T06:02:03;4.27;;;2.90;;
7657;SDS011;8462;53.156;8.220;2022-09-14T06:04:30;5.30;;;3.17;;
7657;SDS011;8462;53.156;8.220;2022-09-14T06:06:56;7.50;;;3.17;;
7657;SDS011;8462;53.156;8.220;2022-09-14T06:09:25;6.47;;;3.30;;
7657;SDS011;8462;53.156;8.220;2022-09-14T06:11:53;5.10;;;2.90;;
7657;SDS011;8462;53.156;8.220;2022-09-14T06:14:20;4.97;;;3.03;;
7657;SDS011;8462;53.156;8.220;2022-09-14T06:16:47;4.97;;;3.00;;
7657;SDS011;8462;53.156;8.220;2022-09-14T06:19:14;5.80;;;2.80;;
7657;SDS011;8462;53.156;8.220;2022-09-14T06:21:41;4.80;;;2.93;;
7657;SDS011;8462;53.156;8.220;2022-09-14T06:24:08;5.00;;;2.63;;
7657;SDS011;8462;53.156;8.220;2022-09-14T06:26:39;7.33;;;2.90;;
7657;SDS011;8462;53.156;8.220;2022-09-14T06:29:06;4.47;;;2.70;;
7657;SDS011;8462;53.156;8.220;2022-09-14T06:31:33;4.40;;;2.70;;
7657;SDS011;8462;53.156;8.220;2022-09-14T06:34:01;4.27;;;2.27;;
7657;SDS011;8462;53.156;8.220;2022-09-14T06:36:28;7.67;;;2.90;;
7657;SDS011;8462;53.156;8.220;2022-09-14T06:38:57;7.80;;;3.03;;
7657;SDS011;8462;53.156;8.220;2022-09-14T06:41:25;6.17;;;3.27;;
7657;SDS011;8462;53.156;8.220;2022-09-14T06:43:56;6.73;;;2.77;;
7657;SDS011;8462;53.156;8.220;2022-09-14T06:46:27;4.53;;;2.93;;
7657;SDS011;8462;53.156;8.220;2022-09-14T06:48:55;6.87;;;3.10;;
7657;SDS011;8462;53.156;8.220;2022-09-14T06:51:25;4.27;;;2.53;;
7657;SDS011;8462;53.156;8.220;2022-09-14T06:53:54;6.03;;;3.37;;
7657;SDS011;8462;53.156;8.220;2022-09-14T06:56:23;4.27;;;2.97;;
7657;SDS011;8462;53.156;8.220;2022-09-14T06:58:51;3.13;;;2.20;;
7657;SDS011;8462;53.156;8.220;2022-09-14T07:01:20;8.97;;;2.90;;
7657;SDS011;8462;53.156;8.220;2022-09-14T07:03:47;4.30;;;2.67;;
7657;SDS011;8462;53.156;8.220;2022-09-14T07:06:17;7.50;;;2.90;;
7657;SDS011;8462;53.156;8.220;2022-09-14T07:08:46;3.67;;;2.47;;
7657;SDS011;8462;53.156;8.220;2022-09-14T07:11:14;6.23;;;3.40;;
7657;SDS011;8462;53.156;8.220;2022-09-14T07:13:42;6.60;;;2.87;;
7657;SDS011;8462;53.156;8.220;2022-09-14T07:16:10;5.67;;;2.50;;
7657;SDS011;8462;53.156;8.220;2022-09-14T07:18:38;4.63;;;2.70;;
7657;SDS011;8462;53.156;8.220;2022-09-14T07:21:06;4.23;;;2.73;;
7657;SDS011;8462;53.156;8.220;2022-09-14T07:23:35;7.43;;;2.47;;
7657;SDS011;8462;53.156;8.220;2022-09-14T07:26:05;8.57;;;3.20;;
7657;SDS011;8462;53.156;8.220;2022-09-14T07:28:34;4.77;;;2.60;;
7657;SDS011;8462;53.156;8.220;2022-09-14T07:31:02;7.67;;;3.23;;
7657;SDS011;8462;53.156;8.220;2022-09-14T07:33:30;6.43;;;2.83;;
7657;SDS011;8462;53.156;8.220;2022-09-14T07:36:04;5.53;;;3.20;;
7657;SDS011;8462;53.156;8.220;2022-09-14T07:38:31;5.53;;;2.73;;
7657;SDS011;8462;53.156;8.220;2022-09-14T07:40:59;7.13;;;3.17;;
7657;SDS011;8462;53.156;8.220;2022-09-14T07:43:27;5.37;;;3.30;;
7657;SDS011;8462;53.156;8.220;2022-09-14T07:45:54;5.63;;;3.23;;
7657;SDS011;8462;53.156;8.220;2022-09-14T07:48:21;4.23;;;2.93;;
7657;SDS011;8462;53.156;8.220;2022-09-14T07:50:57;4.87;;;2.60;;
7657;SDS011;8462;53.156;8.220;2022-09-14T07:53:26;5.50;;;2.83;;
7657;SDS011;8462;53.156;8.220;2022-09-14T07:55:56;5.07;;;3.07;;
7657;SDS011;8462;53.156;8.220;2022-09-14T07:58:24;3.77;;;2.40;;
7657;SDS011;8462;53.156;8.220;2022-09-14T08:00:56;4.03;;;1.93;;
7657;SDS011;8462;53.156;8.220;2022-09-14T08:03:25;5.47;;;2.40;;
7657;SDS011;8462;53.156;8.220;2022-09-14T08:05:57;3.10;;;2.40;;
7657;SDS011;8462;53.156;8.220;2022-09-14T08:11:02;5.70;;;2.83;;
7657;SDS011;8462;53.156;8.220;2022-09-14T08:13:32;3.50;;;2.00;;
7657;SDS011;8462;53.156;8.220;2022-09-14T08:15:59;4.40;;;1.83;;
7657;SDS011;8462;53.156;8.220;2022-09-14T08:18:27;3.43;;;2.10;;
7657;SDS011;8462;53.156;8.220;2022-09-14T08:20:55;6.20;;;2.40;;
7657;SDS011;8462;53.156;8.220;2022-09-14T08:23:24;3.00;;;2.33;;
7657;SDS011;8462;53.156;8.220;2022-09-14T08:25:52;4.30;;;2.07;;
7657;SDS011;8462;53.156;8.220;2022-09-14T08:28:19;3.80;;;1.53;;
7657;SDS011;8462;53.156;8.220;2022-09-14T08:30:48;3.60;;;2.20;;
7657;SDS011;8462;53.156;8.220;2022-09-14T08:33:16;4.23;;;1.80;;
7657;SDS011;8462;53.156;8.220;2022-09-14T08:35:44;4.37;;;2.10;;
7657;SDS011;8462;53.156;8.220;2022-09-14T08:38:13;4.03;;;1.90;;
7657;SDS011;8462;53.156;8.220;2022-09-14T08:40:43;5.57;;;2.50;;
7657;SDS011;8462;53.156;8.220;2022-09-14T08:43:13;4.23;;;1.90;;
7657;SDS011;8462;53.156;8.220;2022-09-14T08:45:41;4.67;;;2.00;;
7657;SDS011;8462;53.156;8.220;2022-09-14T08:48:10;6.60;;;2.70;;
7657;SDS011;8462;53.156;8.220;2022-09-14T08:50:44;4.53;;;1.93;;
7657;SDS011;8462;53.156;8.220;2022-09-14T08:53:11;3.63;;;1.67;;
7657;SDS011;8462;53.156;8.220;2022-09-14T08:55:40;3.33;;;1.70;;
7657;SDS011;8462;53.156;8.220;2022-09-14T08:58:16;4.37;;;1.47;;
7657;SDS011;8462;53.156;8.220;2022-09-14T09:00:52;4.93;;;1.43;;
7657;SDS011;8462;53.156;8.220;2022-09-14T09:03:26;3.67;;;1.80;;
7657;SDS011;8462;53.156;8.220;2022-09-14T09:06:12;4.97;;;1.97;;
7657;SDS011;8462;53.156;8.220;2022-09-14T09:08:45;5.50;;;2.37;;
7657;SDS011;8462;53.156;8.220;2022-09-14T09:11:21;5.13;;;1.90;;
7657;SDS011;8462;53.156;8.220;2022-09-14T09:13:53;6.93;;;2.23;;
7657;SDS011;8462;53.156;8.220;2022-09-14T09:16:22;3.23;;;1.57;;
7657;SDS011;8462;53.156;8.220;2022-09-14T09:18:51;3.33;;;1.20;;
7657;SDS011;8462;53.156;8.220;2022-09-14T09:21:25;1.93;;;1.00;;
7657;SDS011;8462;53.156;8.220;2022-09-14T09:23:57;5.83;;;1.97;;
7657;SDS011;8462;53.156;8.220;2022-09-14T09:26:39;2.60;;;1.30;;
7657;SDS011;8462;53.156;8.220;2022-09-14T09:29:08;2.73;;;1.10;;
7657;SDS011;8462;53.156;8.220;2022-09-14T09:31:55;3.73;;;1.30;;
7657;SDS011;8462;53.156;8.220;2022-09-14T09:34:53;2.17;;;1.23;;
7657;SDS011;8462;53.156;8.220;2022-09-14T09:37:36;3.00;;;1.27;;
7657;SDS011;8462;53.156;8.220;2022-09-14T09:40:07;3.43;;;1.60;;
7657;SDS011;8462;53.156;8.220;2022-09-14T09:45:43;3.27;;;1.20;;
7657;SDS011;8462;53.156;8.220;2022-09-14T09:48:16;3.17;;;1.30;;
7657;SDS011;8462;53.156;8.220;2022-09-14T09:50:45;4.57;;;1.37;;
7657;SDS011;8462;53.156;8.220;2022-09-14T09:53:15;2.53;;;1.20;;
7657;SDS011;8462;53.156;8.220;2022-09-14T09:55:45;2.60;;;0.90;;
7657;SDS011;8462;53.156;8.220;2022-09-14T09:58:33;4.57;;;0.90;;
7657;SDS011;8462;53.156;8.220;2022-09-14T10:01:05;3.43;;;1.10;;
7657;SDS011;8462;53.156;8.220;2022-09-14T10:03:35;3.77;;;1.00;;
7657;SDS011;8462;53.156;8.220;2022-09-14T10:06:07;2.93;;;1.10;;
7657;SDS011;8462;53.156;8.220;2022-09-14T10:08:39;2.93;;;1.30;;
7657;SDS011;8462;53.156;8.220;2022-09-14T10:13:58;4.17;;;1.33;;
7657;SDS011;8462;53.156;8.220;2022-09-14T10:16:35;2.17;;;1.10;;
7657;SDS011;8462;53.156;8.220;2022-09-14T10:19:11;4.50;;;1.27;;
7657;SDS011;8462;53.156;8.220;2022-09-14T10:21:59;3.07;;;0.80;;
7657;SDS011;8462;53.156;8.220;2022-09-14T10:24:29;3.63;;;1.00;;
7657;SDS011;8462;53.156;8.220;2022-09-14T10:26:57;2.30;;;1.10;;
7657;SDS011;8462;53.156;8.220;2022-09-14T10:29:28;2.60;;;1.00;;
7657;SDS011;8462;53.156;8.220;2022-09-14T10:32:05;3.93;;;0.97;;
7657;SDS011;8462;53.156;8.220;2022-09-14T10:34:41;1.70;;;1.07;;
7657;SDS011;8462;53.156;8.220;2022-09-14T10:37:18;4.90;;;1.10;;
7657;SDS011;8462;53.156;8.220;2022-09-14T10:39:57;2.37;;;0.80;;
7657;SDS011;8462;53.156;8.220;2022-09-14T10:42:43;2.80;;;1.00;;
7657;SDS011;8462;53.156;8.220;2022-09-14T10:45:23;3.53;;;2.10;;
7657;SDS011;8462;53.156;8.220;2022-09-14T10:48:02;3.73;;;1.07;;
7657;SDS011;8462;53.156;8.220;2022-09-14T10:50:53;3.93;;;1.20;;
7657;SDS011;8462;53.156;8.220;2022-09-14T10:53:39;4.70;;;1.03;;
7657;SDS011;8462;53.156;8.220;2022-09-14T10:56:12;5.60;;;1.40;;
7657;SDS011;8462;53.156;8.220;2022-09-14T10:58:49;3.30;;;1.37;;
7657;SDS011;8462;53.156;8.220;2022-09-14T11:01:33;2.83;;;0.87;;
7657;SDS011;8462;53.156;8.220;2022-09-14T11:04:19;1.97;;;1.00;;
7657;SDS011;8462;53.156;8.220;2022-09-14T11:06:58;3.27;;;1.20;;
7657;SDS011;8462;53.156;8.220;2022-09-14T11:09:32;4.67;;;1.40;;
7657;SDS011;8462;53.156;8.220;2022-09-14T11:12:05;4.20;;;0.90;;
7657;SDS011;8462;53.156;8.220;2022-09-14T11:14:43;7.93;;;3.30;;
7657;SDS011;8462;53.156;8.220;2022-09-14T11:20:21;2.37;;;1.20;;
7657;SDS011;8462;53.156;8.220;2022-09-14T11:22:56;3.40;;;1.23;;
7657;SDS011;8462;53.156;8.220;2022-09-14T11:25:34;2.43;;;1.03;;
7657;SDS011;8462;53.156;8.220;2022-09-14T11:28:08;4.73;;;1.27;;
7657;SDS011;8462;53.156;8.220;2022-09-14T11:30:43;2.23;;;0.77;;
7657;SDS011;8462;53.156;8.220;2022-09-14T11:33:15;3.43;;;1.00;;
7657;SDS011;8462;53.156;8.220;2022-09-14T11:35:47;4.07;;;1.40;;
7657;SDS011;8462;53.156;8.220;2022-09-14T11:38:19;2.37;;;1.10;;
7657;SDS011;8462;53.156;8.220;2022-09-14T11:40:49;4.97;;;1.40;;
7657;SDS011;8462;53.156;8.220;2022-09-14T11:43:23;3.07;;;0.90;;
7657;SDS011;8462;53.156;8.220;2022-09-14T11:45:57;3.97;;;1.40;;
7657;SDS011;8462;53.156;8.220;2022-09-14T11:48:33;2.23;;;1.20;;
7657;SDS011;8462;53.156;8.220;2022-09-14T11:51:07;3.27;;;0.90;;
7657;SDS011;8462;53.156;8.220;2022-09-14T11:53:38;2.67;;;1.27;;
7657;SDS011;8462;53.156;8.220;2022-09-14T11:56:13;3.03;;;0.90;;
7657;SDS011;8462;53.156;8.220;2022-09-14T11:58:51;4.27;;;1.40;;
7657;SDS011;8462;53.156;8.220;2022-09-14T12:01:28;2.63;;;0.77;;
7657;SDS011;8462;53.156;8.220;2022-09-14T12:04:10;2.87;;;1.50;;
7657;SDS011;8462;53.156;8.220;2022-09-14T12:06:50;3.17;;;1.00;;
7657;SDS011;8462;53.156;8.220;2022-09-14T12:12:29;2.33;;;0.97;;
7657;SDS011;8462;53.156;8.220;2022-09-14T12:14:58;6.43;;;1.13;;
7657;SDS011;8462;53.156;8.220;2022-09-14T12:17:29;1.87;;;1.10;;
7657;SDS011;8462;53.156;8.220;2022-09-14T12:23:10;2.93;;;0.90;;
7657;SDS011;8462;53.156;8.220;2022-09-14T12:25:53;3.63;;;1.17;;
7657;SDS011;8462;53.156;8.220;2022-09-14T12:28:27;2.27;;;1.40;;
7657;SDS011;8462;53.156;8.220;2022-09-14T12:31:04;1.80;;;0.83;;
7657;SDS011;8462;53.156;8.220;2022-09-14T12:33:42;4.07;;;1.40;;
7657;SDS011;8462;53.156;8.220;2022-09-14T12:36:10;6.10;;;3.00;;
7657;SDS011;8462;53.156;8.220;2022-09-14T12:39:18;2.97;;;1.33;;
7657;SDS011;8462;53.156;8.220;2022-09-14T12:41:59;7.03;;;1.33;;
7657;SDS011;8462;53.156;8.220;2022-09-14T12:44:32;7.10;;;1.60;;
7657;SDS011;8462;53.156;8.220;2022-09-14T12:50:07;2.50;;;1.00;;
7657;SDS011;8462;53.156;8.220;2022-09-14T12:52:43;3.23;;;0.90;;
7657;SDS011;8462;53.156;8.220;2022-09-14T12:55:24;2.03;;;1.10;;
7657;SDS011;8462;53.156;8.220;2022-09-14T12:58:01;3.93;;;1.80;;
7657;SDS011;8462;53.156;8.220;2022-09-14T13:00:44;6.63;;;1.40;;
7657;SDS011;8462;53.156;8.220;2022-09-14T13:03:23;4.60;;;1.40;;
7657;SDS011;8462;53.156;8.220;2022-09-14T13:06:02;3.57;;;1.40;;
7657;SDS011;8462;53.156;8.220;2022-09-14T13:08:32;4.40;;;1.10;;
7657;SDS011;8462;53.156;8.220;2022-09-14T13:11:02;3.73;;;1.07;;
7657;SDS011;8462;53.156;8.220;2022-09-14T13:13:31;3.50;;;1.17;;
7657;SDS011;8462;53.156;8.220;2022-09-14T13:15:59;3.27;;;1.37;;
7657;SDS011;8462;53.156;8.220;2022-09-14T13:18:31;4.40;;;1.67;;
7657;SDS011;8462;53.156;8.220;2022-09-14T13:21:00;2.57;;;0.90;;
7657;SDS011;8462;53.156;8.220;2022-09-14T13:23:30;4.70;;;1.30;;
7657;SDS011;8462;53.156;8.220;2022-09-14T13:26:09;4.30;;;1.50;;
7657;SDS011;8462;53.156;8.220;2022-09-14T13:28:37;7.27;;;1.40;;
7657;SDS011;8462;53.156;8.220;2022-09-14T13:31:10;2.90;;;1.23;;
7657;SDS011;8462;53.156;8.220;2022-09-14T13:33:44;3.23;;;1.20;;
7657;SDS011;8462;53.156;8.220;2022-09-14T13:36:14;5.53;;;1.57;;
7657;SDS011;8462;53.156;8.220;2022-09-14T13:38:43;4.77;;;1.30;;
7657;SDS011;8462;53.156;8.220;2022-09-14T13:41:14;4.60;;;1.63;;
7657;SDS011;8462;53.156;8.220;2022-09-14T13:43:43;2.60;;;0.90;;
7657;SDS011;8462;53.156;8.220;2022-09-14T13:46:12;4.00;;;1.30;;
7657;SDS011;8462;53.156;8.220;2022-09-14T13:48:40;4.90;;;1.20;;
7657;SDS011;8462;53.156;8.220;2022-09-14T13:51:08;6.60;;;1.80;;
7657;SDS011;8462;53.156;8.220;2022-09-14T13:53:38;2.50;;;1.10;;
7657;SDS011;8462;53.156;8.220;2022-09-14T13:56:19;2.93;;;0.97;;
7657;SDS011;8462;53.156;8.220;2022-09-14T13:58:48;2.67;;;1.20;;
7657;SDS011;8462;53.156;8.220;2022-09-14T14:01:38;3.07;;;0.90;;
7657;SDS011;8462;53.156;8.220;2022-09-14T14:04:16;2.83;;;1.23;;
7657;SDS011;8462;53.156;8.220;2022-09-14T14:06:57;6.37;;;1.40;;
7657;SDS011;8462;53.156;8.220;2022-09-14T14:09:28;3.87;;;1.37;;
7657;SDS011;8462;53.156;8.220;2022-09-14T14:12:08;4.63;;;1.00;;
7657;SDS011;8462;53.156;8.220;2022-09-14T14:14:38;3.50;;;1.43;;
7657;SDS011;8462;53.156;8.220;2022-09-14T14:23:11;3.27;;;1.13;;
7657;SDS011;8462;53.156;8.220;2022-09-14T14:25:45;2.50;;;1.60;;
7657;SDS011;8462;53.156;8.220;2022-09-14T14:28:16;7.23;;;1.63;;
7657;SDS011;8462;53.156;8.220;2022-09-14T14:30:47;2.70;;;0.97;;
7657;SDS011;8462;53.156;8.220;2022-09-14T14:33:16;4.13;;;1.20;;
7657;SDS011;8462;53.156;8.220;2022-09-14T14:35:44;2.73;;;1.23;;
7657;SDS011;8462;53.156;8.220;2022-09-14T14:38:12;11.40;;;2.47;;
7657;SDS011;8462;53.156;8.220;2022-09-14T14:40:40;8.87;;;3.27;;
7657;SDS011;8462;53.156;8.220;2022-09-14T14:43:08;4.80;;;1.87;;
7657;SDS011;8462;53.156;8.220;2022-09-14T14:45:38;4.63;;;1.50;;
7657;SDS011;8462;53.156;8.220;2022-09-14T14:48:05;4.83;;;1.57;;
7657;SDS011;8462;53.156;8.220;2022-09-14T14:50:36;3.80;;;1.67;;
7657;SDS011;8462;53.156;8.220;2022-09-14T14:53:04;4.43;;;1.40;;
7657;SDS011;8462;53.156;8.220;2022-09-14T14:55:32;3.97;;;1.20;;
7657;SDS011;8462;53.156;8.220;2022-09-14T14:58:02;4.93;;;1.37;;
7657;SDS011;8462;53.156;8.220;2022-09-14T15:00:32;6.13;;;1.73;;
7657;SDS011;8462;53.156;8.220;2022-09-14T15:03:00;2.27;;;1.00;;
7657;SDS011;8462;53.156;8.220;2022-09-14T15:05:27;4.33;;;1.53;;
7657;SDS011;8462;53.156;8.220;2022-09-14T15:07:56;4.83;;;1.73;;
7657;SDS011;8462;53.156;8.220;2022-09-14T15:10:24;4.80;;;1.40;;
7657;SDS011;8462;53.156;8.220;2022-09-14T15:12:53;2.63;;;1.10;;
7657;SDS011;8462;53.156;8.220;2022-09-14T15:15:20;3.80;;;1.33;;
7657;SDS011;8462;53.156;8.220;2022-09-14T15:17:49;4.93;;;1.27;;
7657;SDS011;8462;53.156;8.220;2022-09-14T15:20:16;2.67;;;1.03;;
7657;SDS011;8462;53.156;8.220;2022-09-14T15:22:44;5.30;;;1.47;;
7657;SDS011;8462;53.156;8.220;2022-09-14T15:25:12;7.53;;;1.60;;
7657;SDS011;8462;53.156;8.220;2022-09-14T15:27:40;7.97;;;1.83;;
7657;SDS011;8462;53.156;8.220;2022-09-14T15:30:08;7.80;;;1.57;;
7657;SDS011;8462;53.156;8.220;2022-09-14T15:32:36;4.93;;;1.30;;
7657;SDS011;8462;53.156;8.220;2022-09-14T15:35:04;4.33;;;1.13;;
7657;SDS011;8462;53.156;8.220;2022-09-14T15:37:33;4.50;;;1.50;;
7657;SDS011;8462;53.156;8.220;2022-09-14T15:40:00;3.77;;;1.20;;
7657;SDS011;8462;53.156;8.220;2022-09-14T15:42:28;7.20;;;1.20;;
7657;SDS011;8462;53.156;8.220;2022-09-14T15:44:55;3.60;;;1.40;;
7657;SDS011;8462;53.156;8.220;2022-09-14T15:47:22;2.80;;;1.43;;
7657;SDS011;8462;53.156;8.220;2022-09-14T15:49:49;2.53;;;1.57;;
7657;SDS011;8462;53.156;8.220;2022-09-14T15:52:17;2.87;;;1.20;;
7657;SDS011;8462;53.156;8.220;2022-09-14T15:54:44;4.80;;;1.13;;
7657;SDS011;8462;53.156;8.220;2022-09-14T15:57:11;2.77;;;1.53;;
7657;SDS011;8462;53.156;8.220;2022-09-14T15:59:39;11.63;;;2.17;;
7657;SDS011;8462;53.156;8.220;2022-09-14T16:02:06;3.43;;;1.30;;
7657;SDS011;8462;53.156;8.220;2022-09-14T16:04:36;5.13;;;1.80;;
7657;SDS011;8462;53.156;8.220;2022-09-14T16:07:04;2.63;;;1.30;;
7657;SDS011;8462;53.156;8.220;2022-09-14T16:09:34;1.97;;;1.47;;